createdAt,value
2024-04-17T00:02:21.957Z,4.73
2024-04-17T00:04:49.722Z,3.97
2024-04-17T00:07:17.504Z,3.57
2024-04-17T00:09:45.234Z,5.37
2024-04-17T00:12:12.914Z,1.63
2024-04-17T00:14:40.578Z,12.80
2024-04-17T00:17:08.398Z,2.73
2024-04-17T00:19:36.164Z,3.43
2024-04-17T00:22:03.994Z,5.00
2024-04-17T00:24:31.714Z,3.37
2024-04-17T00:26:59.518Z,6.07
2024-04-17T00:29:27.230Z,3.50
2024-04-17T00:31:55.033Z,4.13
2024-04-17T00:34:22.771Z,2.70
2024-04-17T00:36:50.516Z,4.07
2024-04-17T00:39:18.114Z,7.97
2024-04-17T00:41:45.841Z,5.47
2024-04-17T00:44:14.170Z,3.90
2024-04-17T00:46:42.519Z,8.37
2024-04-17T00:49:10.439Z,5.73
2024-04-17T00:51:39.626Z,2.00
2024-04-17T00:54:08.087Z,4.53
2024-04-17T00:56:36.213Z,12.03
2024-04-17T00:59:03.934Z,11.80
2024-04-17T01:01:31.770Z,3.80
2024-04-17T01:03:59.480Z,2.23
2024-04-17T01:06:28.286Z,1.63
2024-04-17T01:08:55.975Z,9.97
2024-04-17T01:11:23.720Z,3.07
2024-04-17T01:13:51.479Z,6.77
2024-04-17T01:16:19.290Z,6.93
2024-04-17T01:18:47.741Z,2.33
2024-04-17T01:21:15.609Z,2.87
2024-04-17T01:23:43.240Z,6.43
2024-04-17T01:26:11.072Z,4.27
2024-04-17T01:28:38.792Z,1.83
2024-04-17T01:31:06.524Z,5.20
2024-04-17T01:33:34.208Z,3.37
2024-04-17T01:36:02.018Z,3.70
2024-04-17T01:38:29.690Z,5.40
2024-04-17T01:40:57.703Z,4.97
2024-04-17T01:43:25.526Z,4.27
2024-04-17T01:45:53.677Z,6.07
2024-04-17T01:48:21.395Z,5.57
2024-04-17T01:50:49.081Z,3.53
2024-04-17T01:53:16.764Z,4.07
2024-04-17T01:55:47.613Z,4.07
2024-04-17T01:58:15.408Z,1.80
2024-04-17T02:00:43.107Z,9.47
2024-04-17T02:03:10.845Z,4.83
2024-04-17T02:05:38.567Z,4.43
2024-04-17T02:08:06.932Z,7.03
2024-04-17T02:10:34.616Z,2.90
2024-04-17T02:13:02.389Z,3.87
2024-04-17T02:15:30.061Z,3.43
2024-04-17T02:17:57.886Z,3.87
2024-04-17T02:20:25.644Z,6.10
2024-04-17T02:22:53.396Z,6.37
2024-04-17T02:25:21.203Z,4.73
2024-04-17T02:27:48.922Z,6.00
2024-04-17T02:30:16.663Z,3.97
2024-04-17T02:32:44.342Z,7.60
2024-04-17T02:35:12.019Z,4.33
2024-04-17T02:37:39.871Z,5.60
2024-04-17T02:40:07.905Z,4.00
2024-04-17T02:42:35.577Z,6.50
2024-04-17T02:45:03.249Z,5.17
2024-04-17T02:47:32.431Z,3.07
2024-04-17T02:50:00.116Z,3.80
2024-04-17T02:52:27.892Z,6.27
2024-04-17T02:54:55.622Z,3.33
2024-04-17T02:57:23.490Z,6.80
2024-04-17T02:59:51.984Z,6.93
2024-04-17T03:02:19.681Z,3.87
2024-04-17T03:04:47.482Z,3.80
2024-04-17T03:07:15.284Z,6.77
2024-04-17T03:09:42.966Z,3.17
2024-04-17T03:12:10.696Z,3.33
2024-04-17T03:14:38.321Z,7.13
2024-04-17T03:17:06.189Z,4.00
2024-04-17T03:19:33.918Z,5.97
2024-04-17T03:22:01.670Z,5.43
2024-04-17T03:24:29.354Z,5.10
2024-04-17T03:26:57.184Z,4.33
2024-04-17T03:29:24.914Z,3.53
2024-04-17T03:31:52.718Z,2.43
2024-04-17T03:34:20.450Z,2.77
2024-04-17T03:36:48.272Z,4.50
2024-04-17T03:39:15.891Z,14.10
2024-04-17T03:41:43.696Z,4.40
2024-04-17T03:44:11.325Z,2.50
2024-04-17T03:46:39.065Z,3.63
2024-04-17T03:49:06.886Z,3.37
2024-04-17T03:51:34.659Z,3.60
2024-04-17T03:54:02.378Z,6.33
2024-04-17T03:56:30.139Z,9.33
2024-04-17T03:58:57.989Z,4.63
2024-04-17T04:01:25.963Z,10.63
2024-04-17T04:03:53.688Z,3.27
2024-04-17T04:06:21.423Z,4.27
2024-04-17T04:08:49.086Z,6.10
2024-04-17T04:11:16.891Z,7.10
2024-04-17T04:13:44.581Z,4.87
2024-04-17T04:16:12.390Z,6.50
2024-04-17T04:18:40.079Z,4.23
2024-04-17T04:21:07.879Z,3.70
2024-04-17T04:23:35.524Z,7.47
2024-04-17T04:26:03.194Z,3.87
2024-04-17T04:28:30.924Z,11.80
2024-04-17T04:30:59.817Z,6.17
2024-04-17T04:33:27.630Z,5.27
2024-04-17T04:35:55.371Z,6.13
2024-04-17T04:38:23.009Z,11.77
2024-04-17T04:40:50.837Z,2.83
2024-04-17T04:43:18.495Z,6.70
2024-04-17T04:45:46.195Z,12.23
2024-04-17T04:48:13.884Z,4.17
2024-04-17T04:50:41.662Z,5.93
2024-04-17T04:53:09.343Z,4.23
2024-04-17T04:55:37.157Z,4.77
2024-04-17T04:58:04.961Z,3.93
2024-04-17T05:00:32.658Z,6.73
2024-04-17T05:03:00.502Z,5.07
2024-04-17T05:05:28.400Z,3.43
2024-04-17T05:07:56.104Z,4.23
2024-04-17T05:10:23.877Z,4.90
2024-04-17T05:12:51.554Z,7.67
2024-04-17T05:15:19.249Z,5.47
2024-04-17T05:17:47.104Z,8.83
2024-04-17T05:20:15.021Z,7.00
2024-04-17T05:22:42.679Z,5.20
2024-04-17T05:25:10.448Z,9.53
2024-04-17T05:27:38.073Z,5.40
2024-04-17T05:30:06.524Z,6.93
2024-04-17T05:32:34.301Z,7.77
2024-04-17T05:35:02.163Z,7.27
2024-04-17T05:37:29.981Z,10.27
2024-04-17T05:39:57.743Z,6.23
2024-04-17T05:42:26.035Z,12.60
2024-04-17T05:44:53.688Z,8.80
2024-04-17T05:47:21.388Z,4.50
2024-04-17T05:49:51.407Z,7.10
2024-04-17T05:52:20.632Z,4.67
2024-04-17T05:54:48.368Z,4.60
2024-04-17T05:57:16.106Z,4.67
2024-04-17T05:59:43.736Z,5.70
2024-04-17T06:02:11.627Z,5.07
2024-04-17T06:04:39.305Z,5.10
2024-04-17T06:07:07.116Z,7.60
2024-04-17T06:09:34.837Z,7.17
2024-04-17T06:12:02.602Z,4.57
2024-04-17T06:14:30.273Z,3.87
2024-04-17T06:16:58.092Z,7.20
2024-04-17T06:19:25.829Z,7.50
2024-04-17T06:21:53.496Z,5.07
2024-04-17T06:24:21.140Z,5.73
2024-04-17T06:26:48.934Z,14.97
2024-04-17T06:29:16.575Z,5.80
2024-04-17T06:31:44.478Z,6.50
2024-04-17T06:34:12.177Z,4.87
2024-04-17T06:36:39.914Z,5.10
2024-04-17T06:39:07.591Z,5.47
2024-04-17T06:41:43.412Z,5.47
2024-04-17T06:44:19.657Z,3.93
2024-04-17T06:46:47.399Z,7.40
2024-04-17T06:49:15.091Z,4.70
2024-04-17T06:51:42.746Z,4.20
2024-04-17T06:54:10.412Z,7.03
2024-04-17T06:56:38.049Z,4.57
2024-04-17T06:59:05.897Z,3.10
2024-04-17T07:01:33.713Z,4.17
2024-04-17T07:04:01.619Z,3.67
2024-04-17T07:06:29.368Z,3.53
2024-04-17T07:08:57.130Z,6.47
2024-04-17T07:11:24.924Z,5.07
2024-04-17T07:13:52.728Z,2.87
2024-04-17T07:16:20.434Z,2.63
2024-04-17T07:18:48.178Z,5.17
2024-04-17T07:21:16.072Z,3.83
2024-04-17T07:23:43.769Z,4.20
2024-04-17T07:26:12.250Z,8.97
2024-04-17T07:28:40.093Z,4.97
2024-04-17T07:31:07.767Z,5.20
2024-04-17T07:33:35.513Z,3.70
2024-04-17T07:36:04.138Z,3.83
2024-04-17T07:38:31.851Z,5.37
2024-04-17T07:41:00.220Z,5.73
2024-04-17T07:43:28.338Z,4.47
2024-04-17T07:45:56.178Z,6.07
2024-04-17T07:48:24.070Z,4.50
2024-04-17T07:50:51.807Z,2.73
2024-04-17T07:53:19.524Z,5.43
2024-04-17T07:55:47.476Z,5.13
2024-04-17T07:58:15.210Z,4.10
2024-04-17T08:00:42.958Z,2.73
2024-04-17T08:03:10.796Z,6.30
2024-04-17T08:05:38.560Z,4.03
2024-04-17T08:08:06.500Z,7.30
2024-04-17T08:10:34.251Z,3.60
2024-04-17T08:13:02.556Z,3.90
2024-04-17T08:15:30.281Z,5.67
2024-04-17T08:17:58.191Z,4.00
2024-04-17T08:20:26.262Z,6.10
2024-04-17T08:22:54.170Z,10.30
2024-04-17T08:25:21.826Z,8.40
2024-04-17T08:27:49.541Z,5.77
2024-04-17T08:30:17.210Z,3.80
2024-04-17T08:32:45.108Z,3.30
2024-04-17T08:35:12.910Z,6.30
2024-04-17T08:37:40.668Z,3.83
2024-04-17T08:40:08.696Z,4.40
2024-04-17T08:42:37.328Z,5.00
2024-04-17T08:45:09.398Z,3.07
2024-04-17T08:47:38.180Z,2.67
2024-04-17T08:50:06.127Z,2.77
2024-04-17T08:52:38.408Z,2.10
2024-04-17T08:55:06.269Z,2.33
2024-04-17T08:57:33.983Z,5.47
2024-04-17T09:00:01.823Z,2.47
2024-04-17T09:02:31.566Z,2.13
2024-04-17T09:04:59.511Z,3.73
2024-04-17T09:07:27.670Z,3.37
2024-04-17T09:09:56.094Z,2.63
2024-04-17T09:12:24.387Z,4.27
2024-04-17T09:14:56.939Z,2.27
2024-04-17T09:17:29.298Z,5.27
2024-04-17T09:19:58.400Z,2.60
2024-04-17T09:22:26.207Z,2.07
2024-04-17T09:24:54.070Z,2.00
2024-04-17T09:27:21.714Z,2.27
2024-04-17T09:29:50.663Z,2.30
2024-04-17T09:32:20.049Z,3.27
2024-04-17T09:34:47.821Z,3.00
2024-04-17T09:37:15.580Z,2.77
2024-04-17T09:39:43.241Z,2.60
2024-04-17T09:42:11.651Z,3.83
2024-04-17T09:44:40.393Z,2.77
2024-04-17T09:47:10.352Z,2.83
2024-04-17T09:49:46.445Z,3.17
2024-04-17T09:52:18.516Z,2.10
2024-04-17T09:54:49.487Z,2.27
2024-04-17T09:57:17.715Z,8.40
2024-04-17T09:59:45.786Z,2.83
2024-04-17T10:02:15.985Z,1.60
2024-04-17T10:04:43.977Z,1.90
2024-04-17T10:07:14.700Z,2.00
2024-04-17T10:09:42.446Z,1.90
2024-04-17T10:12:14.001Z,4.13
2024-04-17T10:14:42.070Z,1.73
2024-04-17T10:17:20.886Z,3.30
2024-04-17T10:19:57.895Z,1.50
2024-04-17T10:22:26.115Z,1.63
2024-04-17T10:24:53.935Z,2.47
2024-04-17T10:27:23.335Z,3.93
2024-04-17T10:29:51.061Z,1.30
2024-04-17T10:32:18.820Z,2.50
2024-04-17T10:34:47.596Z,5.57
2024-04-17T10:37:16.143Z,2.90
2024-04-17T10:39:44.328Z,2.50
2024-04-17T10:42:15.792Z,1.17
2024-04-17T10:44:53.257Z,4.70
2024-04-17T10:47:22.194Z,4.30
2024-04-17T10:49:59.790Z,2.23
2024-04-17T10:52:28.246Z,1.73
2024-04-17T10:54:56.527Z,3.03
2024-04-17T10:57:24.523Z,2.47
2024-04-17T10:59:52.627Z,7.57
2024-04-17T11:02:20.437Z,2.17
2024-04-17T11:04:48.121Z,1.83
2024-04-17T11:07:16.094Z,1.43
2024-04-17T11:09:47.515Z,2.37
2024-04-17T11:12:19.073Z,2.57
2024-04-17T11:14:47.166Z,2.67
2024-04-17T11:17:15.773Z,1.43
2024-04-17T11:19:44.261Z,1.30
2024-04-17T11:22:12.626Z,1.70
2024-04-17T11:24:45.902Z,3.73
2024-04-17T11:27:16.350Z,1.03
2024-04-17T11:29:49.164Z,1.70
2024-04-17T11:32:18.257Z,2.00
2024-04-17T11:34:46.311Z,2.93
2024-04-17T11:37:14.832Z,2.43
2024-04-17T11:39:45.970Z,2.50
2024-04-17T11:42:16.012Z,4.73
2024-04-17T11:44:44.985Z,4.70
2024-04-17T11:47:14.343Z,2.70
2024-04-17T11:49:42.412Z,1.90
2024-04-17T11:52:14.416Z,4.27
2024-04-17T11:54:42.811Z,1.17
2024-04-17T11:57:13.406Z,1.37
2024-04-17T11:59:43.902Z,1.17
2024-04-17T12:02:11.626Z,1.03
2024-04-17T12:04:39.553Z,0.97
2024-04-17T12:07:07.403Z,0.87
2024-04-17T12:09:35.074Z,1.07
2024-04-17T12:12:03.256Z,1.30
2024-04-17T12:14:31.058Z,3.40
2024-04-17T12:16:58.783Z,0.50
2024-04-17T12:19:26.578Z,0.73
2024-04-17T12:21:54.271Z,1.30
2024-04-17T12:24:21.916Z,0.97
2024-04-17T12:26:49.719Z,1.00
2024-04-17T12:29:17.944Z,1.60
2024-04-17T12:31:45.651Z,3.80
2024-04-17T12:34:13.530Z,1.30
2024-04-17T12:36:41.242Z,0.70
2024-04-17T12:39:09.982Z,0.97
2024-04-17T12:41:37.724Z,3.27
2024-04-17T12:44:05.647Z,1.43
2024-04-17T12:46:33.473Z,0.87
2024-04-17T12:49:01.181Z,2.33
2024-04-17T12:51:30.068Z,1.70
2024-04-17T12:53:57.809Z,1.30
2024-04-17T12:56:25.463Z,0.50
2024-04-17T12:58:53.180Z,1.30
2024-04-17T13:01:20.869Z,1.07
2024-04-17T13:03:48.687Z,0.80
2024-04-17T13:06:16.380Z,0.80
2024-04-17T13:08:44.117Z,1.50
2024-04-17T13:11:14.731Z,3.53
2024-04-17T13:13:43.557Z,0.80
2024-04-17T13:16:11.351Z,6.57
2024-04-17T13:18:39.674Z,5.10
2024-04-17T13:21:07.533Z,0.80
2024-04-17T13:23:35.676Z,1.70
2024-04-17T13:26:04.347Z,2.87
2024-04-17T13:28:35.252Z,1.10
2024-04-17T13:31:04.543Z,1.30
2024-04-17T13:33:33.012Z,4.33
2024-04-17T13:36:04.869Z,1.30
2024-04-17T13:38:32.673Z,1.50
2024-04-17T13:41:01.360Z,1.23
2024-04-17T13:43:29.750Z,2.00
2024-04-17T13:45:57.803Z,1.97
2024-04-17T13:48:25.686Z,1.80
2024-04-17T13:50:59.657Z,1.03
2024-04-17T13:53:27.856Z,2.10
2024-04-17T13:55:55.631Z,1.60
2024-04-17T13:58:23.422Z,1.33
2024-04-17T14:00:51.262Z,1.30
2024-04-17T14:03:19.100Z,1.97
2024-04-17T14:05:46.758Z,3.53
2024-04-17T14:08:14.438Z,3.93
2024-04-17T14:10:42.083Z,4.43
2024-04-17T14:13:09.934Z,4.70
2024-04-17T14:15:43.043Z,6.30
2024-04-17T14:18:11.515Z,2.90
2024-04-17T14:20:40.040Z,2.43
2024-04-17T14:23:09.026Z,1.47
2024-04-17T14:25:37.534Z,1.63
2024-04-17T14:28:06.872Z,3.93
2024-04-17T14:30:35.005Z,2.70
2024-04-17T14:33:02.911Z,1.57
2024-04-17T14:35:30.748Z,3.77
2024-04-17T14:37:58.389Z,0.93
2024-04-17T14:40:26.420Z,1.00
2024-04-17T14:42:54.059Z,2.47
2024-04-17T14:45:21.777Z,0.90
2024-04-17T14:47:49.492Z,0.70
2024-04-17T14:50:17.346Z,1.00
2024-04-17T14:52:44.971Z,0.83
2024-04-17T14:55:12.645Z,1.80
2024-04-17T14:57:40.471Z,0.73
2024-04-17T15:00:08.506Z,1.10
2024-04-17T15:02:36.210Z,1.33
2024-04-17T15:05:04.015Z,1.20
2024-04-17T15:07:32.792Z,1.63
2024-04-17T15:10:01.135Z,3.63
2024-04-17T15:12:28.972Z,3.00
2024-04-17T15:14:56.711Z,2.13
2024-04-17T15:17:24.358Z,2.90
2024-04-17T15:19:52.096Z,4.07
2024-04-17T15:22:19.739Z,3.07
2024-04-17T15:24:47.633Z,2.40
2024-04-17T15:27:16.626Z,3.00
2024-04-17T15:29:46.843Z,2.60
2024-04-17T15:32:14.304Z,3.17
2024-04-17T15:34:41.748Z,2.47
2024-04-17T15:37:10.126Z,3.53
2024-04-17T15:39:38.766Z,2.93
2024-04-17T15:42:06.618Z,2.47
2024-04-17T15:44:34.287Z,2.27
2024-04-17T15:47:02.065Z,2.77
2024-04-17T15:49:30.537Z,2.50
2024-04-17T15:51:59.542Z,2.37
2024-04-17T15:54:27.348Z,2.70
2024-04-17T15:56:55.202Z,2.63
2024-04-17T15:59:22.855Z,2.83
2024-04-17T16:01:50.638Z,2.67
2024-04-17T16:04:18.314Z,4.43
2024-04-17T16:06:46.167Z,2.47
2024-04-17T16:09:13.949Z,2.97
2024-04-17T16:11:41.838Z,2.73
2024-04-17T16:14:09.512Z,2.30
2024-04-17T16:16:37.218Z,5.67
2024-04-17T16:19:04.972Z,3.77
2024-04-17T16:21:32.766Z,2.40
2024-04-17T16:24:00.500Z,3.40
2024-04-17T16:26:28.342Z,2.97
2024-04-17T16:28:56.017Z,5.00
2024-04-17T16:31:24.811Z,4.40
2024-04-17T16:33:52.803Z,6.37
2024-04-17T16:36:20.656Z,4.67
2024-04-17T16:38:48.699Z,4.93
2024-04-17T16:41:16.608Z,5.50
2024-04-17T16:43:44.444Z,5.50
2024-04-17T16:46:12.672Z,5.40
2024-04-17T16:48:41.238Z,5.47
2024-04-17T16:51:10.138Z,7.47
2024-04-17T16:53:38.351Z,5.03
2024-04-17T16:56:06.366Z,7.27
2024-04-17T16:58:34.048Z,6.53
2024-04-17T17:01:08.701Z,6.00
2024-04-17T17:03:37.118Z,6.70
2024-04-17T17:06:05.583Z,5.00
2024-04-17T17:08:33.541Z,6.97
2024-04-17T17:11:01.292Z,3.87
2024-04-17T17:13:29.162Z,3.77
2024-04-17T17:16:03.497Z,5.13
2024-04-17T17:18:31.436Z,5.40
2024-04-17T17:20:59.816Z,5.13
2024-04-17T17:23:28.141Z,4.40
2024-04-17T17:25:56.047Z,5.47
2024-04-17T17:28:24.249Z,1.47
2024-04-17T17:30:55.987Z,4.63
2024-04-17T17:33:23.999Z,4.67
2024-04-17T17:36:01.558Z,7.03
2024-04-17T17:38:29.424Z,3.13
2024-04-17T17:41:07.058Z,4.83
2024-04-17T17:43:35.457Z,4.97
2024-04-17T17:46:29.314Z,4.90
2024-04-17T17:48:57.213Z,3.43
2024-04-17T17:51:28.005Z,4.00
2024-04-17T17:53:55.831Z,5.40
2024-04-17T17:56:23.448Z,4.27
2024-04-17T17:58:52.026Z,6.20
2024-04-17T18:01:20.923Z,4.17
2024-04-17T18:03:50.181Z,4.63
2024-04-17T18:06:18.954Z,3.00
2024-04-17T18:08:46.914Z,3.47
2024-04-17T18:11:18.366Z,3.97
2024-04-17T18:13:46.536Z,3.07
2024-04-17T18:16:25.101Z,4.17
2024-04-17T18:19:00.776Z,3.00
2024-04-17T18:21:28.664Z,5.87
2024-04-17T18:23:57.507Z,5.70
2024-04-17T18:26:25.748Z,7.90
2024-04-17T18:28:55.435Z,4.67
2024-04-17T18:31:23.453Z,5.87
2024-04-17T18:33:52.731Z,5.87
2024-04-17T18:36:23.621Z,4.60
2024-04-17T18:38:52.821Z,4.37
2024-04-17T18:41:21.319Z,4.17
2024-04-17T18:43:49.383Z,6.70
2024-04-17T18:46:17.077Z,8.13
2024-04-17T18:48:45.022Z,5.83
2024-04-17T18:51:13.335Z,6.30
2024-04-17T18:53:41.093Z,4.57
2024-04-17T18:56:11.406Z,5.43
2024-04-17T18:58:39.944Z,5.27
2024-04-17T19:01:08.090Z,4.80
2024-04-17T19:03:36.162Z,6.00
2024-04-17T19:06:03.985Z,7.13
2024-04-17T19:08:31.825Z,8.20
2024-04-17T19:10:59.622Z,7.53
2024-04-17T19:13:27.592Z,7.20
2024-04-17T19:15:55.365Z,6.43
2024-04-17T19:18:23.163Z,7.13
2024-04-17T19:20:53.946Z,7.03
2024-04-17T19:23:22.073Z,7.00
2024-04-17T19:25:53.772Z,6.93
2024-04-17T19:28:23.155Z,6.60
2024-04-17T19:30:57.890Z,7.27
2024-04-17T19:33:30.151Z,7.73
2024-04-17T19:35:58.071Z,8.07
2024-04-17T19:38:25.792Z,8.47
2024-04-17T19:40:53.520Z,7.77
2024-04-17T19:43:21.207Z,7.17
2024-04-17T19:45:49.396Z,7.90
2024-04-17T19:48:17.313Z,7.13
2024-04-17T19:50:52.744Z,6.60
2024-04-17T19:53:20.660Z,6.47
2024-04-17T19:55:48.367Z,7.97
2024-04-17T19:58:16.269Z,6.80
2024-04-17T20:00:46.085Z,9.43
2024-04-17T20:03:15.206Z,7.20
2024-04-17T20:05:52.027Z,10.33
2024-04-17T20:08:25.163Z,10.10
2024-04-17T20:10:55.764Z,6.80
2024-04-17T20:13:27.241Z,8.17
2024-04-17T20:16:25.952Z,7.43
2024-04-17T20:18:55.152Z,5.27
2024-04-17T20:21:23.886Z,7.87
2024-04-17T20:23:51.802Z,11.63
2024-04-17T20:26:20.345Z,9.67
2024-04-17T20:28:56.846Z,7.23
2024-04-17T20:31:28.876Z,6.70
2024-04-17T20:33:56.980Z,8.30
2024-04-17T20:36:25.025Z,8.80
2024-04-17T20:38:55.738Z,9.47
2024-04-17T20:41:23.485Z,8.67
2024-04-17T20:43:51.155Z,8.83
2024-04-17T20:46:19.197Z,9.53
2024-04-17T20:48:47.047Z,11.80
2024-04-17T20:51:14.879Z,10.13
2024-04-17T20:53:43.033Z,9.53
2024-04-17T20:56:11.382Z,8.27
2024-04-17T20:58:39.698Z,10.20
2024-04-17T21:01:11.671Z,9.73
2024-04-17T21:03:43.341Z,10.93
2024-04-17T21:06:17.320Z,9.50
2024-04-17T21:08:45.357Z,9.23
2024-04-17T21:11:13.918Z,11.33
2024-04-17T21:13:42.716Z,12.07
2024-04-17T21:16:14.604Z,11.73
2024-04-17T21:18:42.907Z,9.97
2024-04-17T21:24:30.359Z,8.87
2024-04-17T21:26:58.228Z,12.70
2024-04-17T21:29:25.929Z,10.53
2024-04-17T21:31:53.645Z,12.43
2024-04-17T21:34:21.457Z,12.77
2024-04-17T21:36:49.403Z,10.97
2024-04-17T21:39:17.149Z,10.67
2024-04-17T21:41:44.983Z,12.90
2024-04-17T21:44:12.669Z,9.80
2024-04-17T21:46:40.512Z,12.97
2024-04-17T21:49:08.360Z,10.53
2024-04-17T21:51:36.344Z,12.20
2024-04-17T21:54:04.150Z,11.03
2024-04-17T21:56:31.956Z,9.80
2024-04-17T21:58:59.589Z,10.30
2024-04-17T22:01:27.500Z,12.27
2024-04-17T22:03:55.238Z,9.57
2024-04-17T22:06:23.024Z,11.37
2024-04-17T22:08:51.054Z,10.80
2024-04-17T22:11:18.918Z,13.77
2024-04-17T22:13:46.640Z,12.17
2024-04-17T22:16:14.480Z,10.63
2024-04-17T22:18:42.256Z,9.70
2024-04-17T22:21:10.098Z,13.80
2024-04-17T22:23:37.876Z,9.40
2024-04-17T22:26:05.819Z,9.33
2024-04-17T22:28:33.516Z,6.67
2024-04-17T22:31:01.328Z,11.37
2024-04-17T22:33:29.059Z,7.80
2024-04-17T22:35:56.852Z,10.93
2024-04-17T22:38:24.489Z,13.70
2024-04-17T22:40:52.335Z,7.90
2024-04-17T22:43:20.009Z,9.57
2024-04-17T22:45:47.763Z,8.90
2024-04-17T22:48:15.551Z,8.50
2024-04-17T22:50:43.494Z,14.87
2024-04-17T22:53:11.211Z,9.40
2024-04-17T22:55:39.007Z,13.07
2024-04-17T22:58:06.659Z,10.70
2024-04-17T23:00:34.569Z,10.13
2024-04-17T23:03:02.244Z,11.20
2024-04-17T23:05:29.945Z,10.23
2024-04-17T23:07:57.768Z,7.13
2024-04-17T23:10:25.962Z,9.70
2024-04-17T23:12:53.676Z,7.87
2024-04-17T23:15:21.574Z,6.93
2024-04-17T23:17:49.296Z,9.43
2024-04-17T23:20:17.768Z,11.40
2024-04-17T23:22:45.486Z,9.63
2024-04-17T23:25:13.195Z,13.37
2024-04-17T23:27:40.926Z,10.43
2024-04-17T23:30:09.102Z,14.03
2024-04-17T23:32:36.955Z,9.30
2024-04-17T23:35:04.835Z,8.53
2024-04-17T23:37:32.540Z,8.83
2024-04-17T23:40:00.387Z,9.13
2024-04-17T23:42:28.210Z,8.77
2024-04-17T23:44:55.997Z,8.30
2024-04-17T23:47:23.852Z,7.10
2024-04-17T23:49:51.933Z,9.17
2024-04-17T23:52:19.677Z,8.53
2024-04-17T23:54:47.474Z,8.90
2024-04-17T23:57:15.192Z,8.20
2024-04-17T23:59:43.368Z,6.53
